createdAt,value
2018-01-15T00:00:50.885Z,90.67
2018-01-15T00:01:50.756Z,90.86
2018-01-15T00:02:50.818Z,90.96
2018-01-15T00:03:50.704Z,90.96
2018-01-15T00:04:50.693Z,90.67
2018-01-15T00:05:50.655Z,91.05
2018-01-15T00:06:50.639Z,91.05
2018-01-15T00:07:50.610Z,91.05
2018-01-15T00:08:50.591Z,91.05
2018-01-15T00:09:50.564Z,90.96
2018-01-15T00:10:50.540Z,90.86
2018-01-15T00:11:50.519Z,91.05
2018-01-15T00:12:50.487Z,90.86
2018-01-15T00:13:50.462Z,91.24
2018-01-15T00:14:50.449Z,91.15
2018-01-15T00:15:50.422Z,91.05
2018-01-15T00:16:50.414Z,91.15
2018-01-15T00:17:50.363Z,90.96
2018-01-15T00:18:50.350Z,90.86
2018-01-15T00:19:50.317Z,91.05
2018-01-15T00:20:50.295Z,90.86
2018-01-15T00:21:50.273Z,91.15
2018-01-15T00:22:50.245Z,90.77
2018-01-15T00:23:50.218Z,90.86
2018-01-15T00:24:50.202Z,90.77
2018-01-15T00:25:50.170Z,91.05
2018-01-15T00:26:50.151Z,91.05
2018-01-15T00:27:50.122Z,91.05
2018-01-15T00:28:50.095Z,90.96
2018-01-15T00:29:50.071Z,91.15
2018-01-15T00:30:50.049Z,90.86
2018-01-15T00:31:50.031Z,90.96
2018-01-15T00:32:49.998Z,91.05
2018-01-15T00:33:49.975Z,91.15
2018-01-15T00:34:49.950Z,90.86
2018-01-15T00:35:49.933Z,90.77
2018-01-15T00:36:49.908Z,90.96
2018-01-15T00:37:49.878Z,91.05
2018-01-15T00:38:49.856Z,90.77
2018-01-15T00:39:49.834Z,91.15
2018-01-15T00:40:49.810Z,90.86
2018-01-15T00:41:49.792Z,90.86
2018-01-15T00:42:49.758Z,91.15
2018-01-15T00:43:49.735Z,91.05
2018-01-15T00:44:49.710Z,90.86
2018-01-15T00:45:49.686Z,91.05
2018-01-15T00:46:49.660Z,90.86
2018-01-15T00:47:49.640Z,90.86
2018-01-15T00:48:49.611Z,91.05
2018-01-15T00:49:49.590Z,91.05
2018-01-15T00:50:49.564Z,90.96
2018-01-15T00:51:49.538Z,90.86
2018-01-15T00:52:49.524Z,90.86
2018-01-15T00:53:49.490Z,90.86
2018-01-15T00:54:49.470Z,90.77
2018-01-15T00:55:49.450Z,90.96
2018-01-15T00:56:49.421Z,91.24
2018-01-15T00:57:49.397Z,91.15
2018-01-15T00:58:49.370Z,90.96
2018-01-15T00:59:49.344Z,91.05
2018-01-15T01:00:49.321Z,90.86
2018-01-15T01:01:49.298Z,90.96
2018-01-15T01:02:49.280Z,90.96
2018-01-15T01:03:49.253Z,91.05
2018-01-15T01:04:49.227Z,91.15
2018-01-15T01:05:49.208Z,90.77
2018-01-15T01:06:49.177Z,90.96
2018-01-15T01:07:49.163Z,90.86
2018-01-15T01:08:49.132Z,90.86
2018-01-15T01:09:49.112Z,90.77
2018-01-15T01:10:49.080Z,90.77
2018-01-15T01:11:49.112Z,90.96
2018-01-15T01:12:49.041Z,90.96
2018-01-15T01:13:49.014Z,90.86
2018-01-15T01:14:48.988Z,90.96
2018-01-15T01:15:48.970Z,91.05
2018-01-15T01:16:48.940Z,91.24
2018-01-15T01:17:48.971Z,90.30
2018-01-15T01:18:48.890Z,90.77
2018-01-15T01:19:48.917Z,91.72
2018-01-15T01:20:48.845Z,91.05
2018-01-15T01:21:48.871Z,90.96
2018-01-15T01:22:48.797Z,91.24
2018-01-15T01:23:48.825Z,91.05
2018-01-15T01:24:48.750Z,90.67
2018-01-15T01:25:48.729Z,91.24
2018-01-15T01:26:48.708Z,90.48
2018-01-15T01:27:48.680Z,90.58
2018-01-15T01:28:48.659Z,90.48
2018-01-15T01:29:48.638Z,90.48
2018-01-15T01:30:48.621Z,90.11
2018-01-15T01:31:48.668Z,90.67
2018-01-15T01:32:48.562Z,90.86
2018-01-15T01:33:48.643Z,90.86
2018-01-15T01:34:48.512Z,90.48
2018-01-15T01:35:48.540Z,91.24
2018-01-15T01:36:48.469Z,91.15
2018-01-15T01:37:48.442Z,90.96
2018-01-15T01:38:48.417Z,91.05
2018-01-15T01:39:48.402Z,91.34
2018-01-15T01:40:48.370Z,91.05
2018-01-15T01:41:48.350Z,91.15
2018-01-15T01:42:48.322Z,90.86
2018-01-15T01:43:48.335Z,90.86
2018-01-15T01:44:48.280Z,91.05
2018-01-15T01:45:48.259Z,90.86
2018-01-15T01:46:48.231Z,90.96
2018-01-15T01:47:48.211Z,90.77
2018-01-15T01:48:48.191Z,90.96
2018-01-15T01:49:48.160Z,90.30
2018-01-15T01:50:48.140Z,90.48
2018-01-15T01:51:48.113Z,90.58
2018-01-15T01:52:48.096Z,90.48
2018-01-15T01:53:48.068Z,91.15
2018-01-15T01:54:48.048Z,90.20
2018-01-15T01:55:48.019Z,90.48
2018-01-15T01:56:47.997Z,90.67
2018-01-15T01:57:47.971Z,90.96
2018-01-15T01:58:47.951Z,91.24
2018-01-15T01:59:47.935Z,90.67
2018-01-15T02:00:47.901Z,90.86
2018-01-15T02:01:47.882Z,90.96
2018-01-15T02:02:47.860Z,90.86
2018-01-15T02:03:47.831Z,91.05
2018-01-15T02:04:47.811Z,91.05
2018-01-15T02:05:47.785Z,91.05
2018-01-15T02:06:47.761Z,91.24
2018-01-15T02:07:47.738Z,91.15
2018-01-15T02:08:47.723Z,91.15
2018-01-15T02:09:47.689Z,90.86
2018-01-15T02:10:47.671Z,90.96
2018-01-15T02:11:47.641Z,91.15
2018-01-15T02:12:47.622Z,90.86
2018-01-15T02:13:47.594Z,90.96
2018-01-15T02:14:47.570Z,90.77
2018-01-15T02:15:47.549Z,91.15
2018-01-15T02:16:47.527Z,90.86
2018-01-15T02:17:47.504Z,91.15
2018-01-15T02:18:47.482Z,91.34
2018-01-15T02:19:47.460Z,90.96
2018-01-15T02:20:47.431Z,90.77
2018-01-15T02:21:47.408Z,90.96
2018-01-15T02:22:47.383Z,91.05
2018-01-15T02:23:47.361Z,91.24
2018-01-15T02:24:47.336Z,91.15
2018-01-15T02:25:47.311Z,91.15
2018-01-15T02:26:47.288Z,91.05
2018-01-15T02:27:47.262Z,91.05
2018-01-15T02:28:47.238Z,91.34
2018-01-15T02:29:47.218Z,90.96
2018-01-15T02:30:47.193Z,91.34
2018-01-15T02:31:47.170Z,90.58
2018-01-15T02:32:47.153Z,90.86
2018-01-15T02:33:47.120Z,90.86
2018-01-15T02:34:47.097Z,90.67
2018-01-15T02:35:47.080Z,90.86
2018-01-15T02:36:47.053Z,90.86
2018-01-15T02:37:47.029Z,91.15
2018-01-15T02:38:47.003Z,91.15
2018-01-15T02:39:46.979Z,91.24
2018-01-15T02:40:46.956Z,90.86
2018-01-15T02:41:46.930Z,90.86
2018-01-15T02:42:46.907Z,90.86
2018-01-15T02:43:46.891Z,90.39
2018-01-15T02:44:46.863Z,90.67
2018-01-15T02:45:46.838Z,90.58
2018-01-15T02:46:46.815Z,90.77
2018-01-15T02:47:46.791Z,90.96
2018-01-15T02:48:46.770Z,90.96
2018-01-15T02:49:46.741Z,91.15
2018-01-15T02:50:46.721Z,91.15
2018-01-15T02:51:46.703Z,91.53
2018-01-15T02:52:46.681Z,91.15
2018-01-15T02:53:46.648Z,91.05
2018-01-15T02:54:46.627Z,91.24
2018-01-15T02:55:46.600Z,90.77
2018-01-15T02:56:46.578Z,90.86
2018-01-15T02:57:46.554Z,91.15
2018-01-15T02:58:46.529Z,90.96
2018-01-15T02:59:46.511Z,90.96
2018-01-15T03:00:46.486Z,91.34
2018-01-15T03:01:46.458Z,90.96
2018-01-15T03:02:46.440Z,91.15
2018-01-15T03:03:46.421Z,90.86
2018-01-15T03:04:46.391Z,90.96
2018-01-15T03:05:46.370Z,91.15
2018-01-15T03:06:46.349Z,90.96
2018-01-15T03:07:46.320Z,90.96
2018-01-15T03:08:46.550Z,90.86
2018-01-15T03:09:46.275Z,90.96
2018-01-15T03:10:46.250Z,91.05
2018-01-15T03:11:46.225Z,90.58
2018-01-15T03:12:46.202Z,91.05
2018-01-15T03:13:46.178Z,90.86
2018-01-15T03:14:46.157Z,90.67
2018-01-15T03:15:46.131Z,91.05
2018-01-15T03:16:46.107Z,91.05
2018-01-15T03:17:46.088Z,91.24
2018-01-15T03:18:46.066Z,91.24
2018-01-15T03:19:46.041Z,90.77
2018-01-15T03:20:46.016Z,90.96
2018-01-15T03:21:45.991Z,91.15
2018-01-15T03:22:45.967Z,91.05
2018-01-15T03:23:45.944Z,90.86
2018-01-15T03:24:45.920Z,90.77
2018-01-15T03:25:45.897Z,91.05
2018-01-15T03:26:45.873Z,90.86
2018-01-15T03:27:45.858Z,90.86
2018-01-15T03:28:45.830Z,90.86
2018-01-15T03:29:45.811Z,91.15
2018-01-15T03:30:45.792Z,91.15
2018-01-15T03:31:45.761Z,90.96
2018-01-15T03:32:45.736Z,91.15
2018-01-15T03:33:45.709Z,91.34
2018-01-15T03:34:45.739Z,90.86
2018-01-15T03:35:45.666Z,90.77
2018-01-15T03:36:45.645Z,90.86
2018-01-15T03:37:45.618Z,91.05
2018-01-15T03:38:45.598Z,90.77
2018-01-15T03:39:45.570Z,90.96
2018-01-15T03:40:45.551Z,91.10
2018-01-15T03:41:45.528Z,90.86
2018-01-15T03:42:45.614Z,90.96
2018-01-15T03:43:45.476Z,90.48
2018-01-15T03:44:45.460Z,91.24
2018-01-15T03:45:45.431Z,91.15
2018-01-15T03:46:45.414Z,90.96
2018-01-15T03:47:45.383Z,91.05
2018-01-15T03:48:45.361Z,91.15
2018-01-15T03:49:45.341Z,90.96
2018-01-15T03:50:45.309Z,91.15
2018-01-15T03:51:45.289Z,91.05
2018-01-15T03:52:45.270Z,91.15
2018-01-15T03:53:45.238Z,91.24
2018-01-15T03:54:45.216Z,90.96
2018-01-15T03:55:45.193Z,90.77
2018-01-15T03:56:45.170Z,91.15
2018-01-15T03:57:45.159Z,91.34
2018-01-15T03:58:45.121Z,91.05
2018-01-15T03:59:45.100Z,90.77
2018-01-15T04:00:45.078Z,90.96
2018-01-15T04:01:45.058Z,90.96
2018-01-15T04:02:45.030Z,91.05
2018-01-15T04:03:45.008Z,90.86
2018-01-15T04:04:44.980Z,91.15
2018-01-15T04:05:44.960Z,91.15
2018-01-15T04:06:44.930Z,90.86
2018-01-15T04:07:44.907Z,90.96
2018-01-15T04:08:44.881Z,91.05
2018-01-15T04:09:44.860Z,91.19
2018-01-15T04:10:44.836Z,91.19
2018-01-15T04:11:44.809Z,91.05
2018-01-15T04:12:44.788Z,90.91
2018-01-15T04:13:44.763Z,91.05
2018-01-15T04:14:44.740Z,90.86
2018-01-15T04:15:44.714Z,90.96
2018-01-15T04:16:44.690Z,91.34
2018-01-15T04:17:44.663Z,90.86
2018-01-15T04:18:44.648Z,91.05
2018-01-15T04:19:44.616Z,90.96
2018-01-15T04:20:44.602Z,91.00
2018-01-15T04:21:44.570Z,90.91
2018-01-15T04:22:44.549Z,91.10
2018-01-15T04:23:44.521Z,90.86
2018-01-15T04:24:44.501Z,90.91
2018-01-15T04:25:44.480Z,90.91
2018-01-15T04:26:44.458Z,91.00
2018-01-15T04:27:44.428Z,90.81
2018-01-15T04:28:44.408Z,90.81
2018-01-15T04:29:44.379Z,90.91
2018-01-15T04:30:44.360Z,90.81
2018-01-15T04:31:44.332Z,91.10
2018-01-15T04:32:44.310Z,90.81
2018-01-15T04:33:44.289Z,91.19
2018-01-15T04:34:44.268Z,91.00
2018-01-15T04:35:44.239Z,90.91
2018-01-15T04:36:44.212Z,90.91
2018-01-15T04:37:44.189Z,91.19
2018-01-15T04:38:44.168Z,91.29
2018-01-15T04:39:44.141Z,90.91
2018-01-15T04:40:44.118Z,90.81
2018-01-15T04:41:44.100Z,91.19
2018-01-15T04:42:44.068Z,91.00
2018-01-15T04:43:44.053Z,90.91
2018-01-15T04:44:44.022Z,91.19
2018-01-15T04:45:44.000Z,91.19
2018-01-15T04:46:43.979Z,90.91
2018-01-15T04:47:44.012Z,90.91
2018-01-15T04:48:43.932Z,90.81
2018-01-15T04:49:43.913Z,91.00
2018-01-15T04:50:43.877Z,90.81
2018-01-15T04:51:43.859Z,91.19
2018-01-15T04:52:43.839Z,91.00
2018-01-15T04:53:43.808Z,91.19
2018-01-15T04:54:43.789Z,90.72
2018-01-15T04:55:43.764Z,90.91
2018-01-15T04:56:43.738Z,90.81
2018-01-15T04:57:43.729Z,91.19
2018-01-15T04:58:43.689Z,91.10
2018-01-15T04:59:43.668Z,90.91
2018-01-15T05:00:43.639Z,91.19
2018-01-15T05:01:43.720Z,90.91
2018-01-15T05:02:43.599Z,90.91
2018-01-15T05:03:43.669Z,91.00
2018-01-15T05:04:43.549Z,91.10
2018-01-15T05:05:43.630Z,91.00
2018-01-15T05:06:43.500Z,90.91
2018-01-15T05:07:43.582Z,91.29
2018-01-15T05:08:43.458Z,91.00
2018-01-15T05:09:43.428Z,91.19
2018-01-15T05:10:43.404Z,90.25
2018-01-15T05:11:43.477Z,90.91
2018-01-15T05:12:43.354Z,90.91
2018-01-15T05:13:43.338Z,90.81
2018-01-15T05:14:43.316Z,90.91
2018-01-15T05:15:43.290Z,90.81
2018-01-15T05:16:43.264Z,90.72
2018-01-15T05:17:43.240Z,91.19
2018-01-15T05:18:43.218Z,91.00
2018-01-15T05:19:43.196Z,90.91
2018-01-15T05:20:43.168Z,91.19
2018-01-15T05:21:43.148Z,90.91
2018-01-15T05:22:43.122Z,90.81
2018-01-15T05:23:43.098Z,90.81
2018-01-15T05:24:43.077Z,90.91
2018-01-15T05:25:43.046Z,91.19
2018-01-15T05:26:43.035Z,91.19
2018-01-15T05:27:43.001Z,90.72
2018-01-15T05:28:42.978Z,90.91
2018-01-15T05:29:42.951Z,91.19
2018-01-15T05:30:42.930Z,91.00
2018-01-15T05:31:42.910Z,90.91
2018-01-15T05:32:42.879Z,90.81
2018-01-15T05:33:42.853Z,90.81
2018-01-15T05:34:42.830Z,91.00
2018-01-15T05:35:42.810Z,90.91
2018-01-15T05:36:42.786Z,91.00
2018-01-15T05:37:42.769Z,91.00
2018-01-15T05:38:42.738Z,90.72
2018-01-15T05:39:42.716Z,90.72
2018-01-15T05:40:42.689Z,90.91
2018-01-15T05:41:42.669Z,91.10
2018-01-15T05:42:42.650Z,91.00
2018-01-15T05:43:42.620Z,91.10
2018-01-15T05:44:42.604Z,91.00
2018-01-15T05:45:42.575Z,90.81
2018-01-15T05:46:42.549Z,90.81
2018-01-15T05:47:42.533Z,90.91
2018-01-15T05:48:42.510Z,91.00
2018-01-15T05:49:42.477Z,91.29
2018-01-15T05:50:42.459Z,91.00
2018-01-15T05:51:42.429Z,91.10
2018-01-15T05:52:42.410Z,91.00
2018-01-15T05:53:42.389Z,90.91
2018-01-15T05:54:42.360Z,90.91
2018-01-15T05:55:42.339Z,90.91
2018-01-15T05:56:42.317Z,90.53
2018-01-15T05:57:42.290Z,90.53
2018-01-15T05:58:42.268Z,90.53
2018-01-15T05:59:42.249Z,91.00
2018-01-15T06:00:42.221Z,90.58
2018-01-15T06:01:42.211Z,90.48
2018-01-15T06:02:42.181Z,90.53
2018-01-15T06:03:42.149Z,90.34
2018-01-15T06:04:42.126Z,90.48
2018-01-15T06:05:42.113Z,90.39
2018-01-15T06:06:42.079Z,90.48
2018-01-15T06:07:42.059Z,90.48
2018-01-15T06:08:42.035Z,90.48
2018-01-15T06:09:42.010Z,90.58
2018-01-15T06:10:41.989Z,90.58
2018-01-15T06:11:41.974Z,90.39
2018-01-15T06:12:41.950Z,91.24
2018-01-15T06:13:41.916Z,90.39
2018-01-15T06:14:41.890Z,90.58
2018-01-15T06:15:41.871Z,90.77
2018-01-15T06:16:41.845Z,90.48
2018-01-15T06:17:41.822Z,90.77
2018-01-15T06:18:41.801Z,90.39
2018-01-15T06:19:41.774Z,90.48
2018-01-15T06:20:41.748Z,90.58
2018-01-15T06:21:41.734Z,90.77
2018-01-15T06:22:41.747Z,90.58
2018-01-15T06:23:41.680Z,90.48
2018-01-15T06:24:41.659Z,90.77
2018-01-15T06:25:41.637Z,90.58
2018-01-15T06:26:41.610Z,90.48
2018-01-15T06:27:41.588Z,90.20
2018-01-15T06:28:41.567Z,90.48
2018-01-15T06:29:41.536Z,90.39
2018-01-15T06:30:41.529Z,90.39
2018-01-15T06:31:41.498Z,90.77
2018-01-15T06:32:41.471Z,90.39
2018-01-15T06:33:41.449Z,90.29
2018-01-15T06:34:41.427Z,90.58
2018-01-15T06:35:41.399Z,90.58
2018-01-15T06:36:41.380Z,90.29
2018-01-15T06:37:41.355Z,90.48
2018-01-15T06:38:41.328Z,90.48
2018-01-15T06:39:41.308Z,90.39
2018-01-15T06:40:41.280Z,90.77
2018-01-15T06:41:41.259Z,90.58
2018-01-15T06:42:41.241Z,90.58
2018-01-15T06:43:41.229Z,90.77
2018-01-15T06:44:41.190Z,90.20
2018-01-15T06:45:41.166Z,90.29
2018-01-15T06:46:41.142Z,90.58
2018-01-15T06:47:41.119Z,90.67
2018-01-15T06:48:41.098Z,90.77
2018-01-15T06:49:41.078Z,90.48
2018-01-15T06:50:41.049Z,90.20
2018-01-15T06:51:41.029Z,90.48
2018-01-15T06:52:41.008Z,90.01
2018-01-15T06:53:40.985Z,90.20
2018-01-15T06:54:40.959Z,90.20
2018-01-15T06:55:40.933Z,90.58
2018-01-15T06:56:40.914Z,90.58
2018-01-15T06:57:40.890Z,90.29
2018-01-15T06:58:40.870Z,90.39
2018-01-15T06:59:40.844Z,90.20
2018-01-15T07:00:40.820Z,90.24
2018-01-15T07:01:40.801Z,90.72
2018-01-15T07:02:40.780Z,90.62
2018-01-15T07:03:40.756Z,90.24
2018-01-15T07:04:40.740Z,90.20
2018-01-15T07:05:40.720Z,90.91
2018-01-15T07:06:40.686Z,90.05
2018-01-15T07:07:40.661Z,90.24
2018-01-15T07:08:40.689Z,90.24
2018-01-15T07:09:40.612Z,90.24
2018-01-15T07:10:40.602Z,90.20
2018-01-15T07:11:40.575Z,90.20
2018-01-15T07:12:40.554Z,89.72
2018-01-15T07:13:40.531Z,90.58
2018-01-15T07:14:40.503Z,90.67
2018-01-15T07:15:40.480Z,90.39
2018-01-15T07:16:40.456Z,90.72
2018-01-15T07:17:40.429Z,90.29
2018-01-15T07:18:40.412Z,90.53
2018-01-15T07:19:40.389Z,90.43
2018-01-15T07:20:40.366Z,90.77
2018-01-15T07:21:40.340Z,90.62
2018-01-15T07:22:40.321Z,90.62
2018-01-15T07:23:40.298Z,90.48
2018-01-15T07:24:40.271Z,90.53
2018-01-15T07:25:40.251Z,90.62
2018-01-15T07:26:40.227Z,90.05
2018-01-15T07:27:40.210Z,90.15
2018-01-15T07:28:40.180Z,90.34
2018-01-15T07:29:40.158Z,90.53
2018-01-15T07:30:40.141Z,89.86
2018-01-15T07:31:40.112Z,90.81
2018-01-15T07:32:40.086Z,90.81
2018-01-15T07:33:40.076Z,90.53
2018-01-15T07:34:40.040Z,90.43
2018-01-15T07:35:40.019Z,90.62
2018-01-15T07:36:39.994Z,90.24
2018-01-15T07:37:39.972Z,89.86
2018-01-15T07:38:39.950Z,90.43
2018-01-15T07:39:39.928Z,90.15
2018-01-15T07:40:39.904Z,90.72
2018-01-15T07:41:39.879Z,90.34
2018-01-15T07:42:39.859Z,90.72
2018-01-15T07:43:39.840Z,90.53
2018-01-15T07:44:39.812Z,90.62
2018-01-15T07:45:39.790Z,90.72
2018-01-15T07:46:39.768Z,90.62
2018-01-15T07:47:39.749Z,90.72
2018-01-15T07:48:39.720Z,90.43
2018-01-15T07:49:39.704Z,90.62
2018-01-15T07:50:39.681Z,90.34
2018-01-15T07:51:39.650Z,90.24
2018-01-15T07:52:39.631Z,90.34
2018-01-15T07:53:39.641Z,90.24
2018-01-15T07:54:39.590Z,90.24
2018-01-15T07:55:39.570Z,89.96
2018-01-15T07:56:39.539Z,90.62
2018-01-15T07:57:39.522Z,90.62
2018-01-15T07:58:39.492Z,90.53
2018-01-15T07:59:39.470Z,90.72
2018-01-15T08:00:39.457Z,90.62
2018-01-15T08:01:39.431Z,89.96
2018-01-15T08:02:39.401Z,90.53
2018-01-15T08:03:39.380Z,90.34
2018-01-15T08:04:39.361Z,90.24
2018-01-15T08:05:39.334Z,89.96
2018-01-15T08:06:39.311Z,90.24
2018-01-15T08:07:39.287Z,89.96
2018-01-15T08:08:39.271Z,90.53
2018-01-15T08:09:39.248Z,90.24
2018-01-15T08:10:39.221Z,90.24
2018-01-15T08:11:39.203Z,90.24
2018-01-15T08:12:39.177Z,90.05
2018-01-15T08:13:39.162Z,90.15
2018-01-15T08:14:39.135Z,90.34
2018-01-15T08:15:39.114Z,90.34
2018-01-15T08:16:39.084Z,90.05
2018-01-15T08:17:39.061Z,90.24
2018-01-15T08:18:39.038Z,89.86
2018-01-15T08:19:39.021Z,90.62
2018-01-15T08:20:39.000Z,90.62
2018-01-15T08:21:38.972Z,90.24
2018-01-15T08:22:38.952Z,89.86
2018-01-15T08:23:38.934Z,90.24
2018-01-15T08:24:38.911Z,90.43
2018-01-15T08:25:38.881Z,89.96
2018-01-15T08:26:38.860Z,90.10
2018-01-15T08:27:38.837Z,90.10
2018-01-15T08:28:38.823Z,90.19
2018-01-15T08:29:38.791Z,90.19
2018-01-15T08:30:38.770Z,89.91
2018-01-15T08:31:38.750Z,90.29
2018-01-15T08:32:38.732Z,90.19
2018-01-15T08:33:38.750Z,90.57
2018-01-15T08:34:38.679Z,90.38
2018-01-15T08:35:38.709Z,90.19
2018-01-15T08:36:38.639Z,90.29
2018-01-15T08:37:38.613Z,90.19
2018-01-15T08:38:38.588Z,90.00
2018-01-15T08:39:38.565Z,90.00
2018-01-15T08:40:38.545Z,90.29
2018-01-15T08:41:38.520Z,90.19
2018-01-15T08:42:38.502Z,89.72
2018-01-15T08:43:38.482Z,90.19
2018-01-15T08:44:38.461Z,90.48
2018-01-15T08:45:38.430Z,89.81
2018-01-15T08:46:38.421Z,89.53
2018-01-15T08:47:38.402Z,90.48
2018-01-15T08:48:38.373Z,90.29
2018-01-15T08:49:38.369Z,90.29
2018-01-15T08:50:38.322Z,90.10
2018-01-15T08:51:38.308Z,90.00
2018-01-15T08:52:38.283Z,90.10
2018-01-15T08:53:38.259Z,90.38
2018-01-15T08:54:38.234Z,90.10
2018-01-15T08:55:38.212Z,90.29
2018-01-15T08:56:38.228Z,89.72
2018-01-15T08:57:38.168Z,90.00
2018-01-15T08:58:38.148Z,90.29
2018-01-15T08:59:38.119Z,90.10
2018-01-15T09:00:38.103Z,89.53
2018-01-15T09:01:38.079Z,90.10
2018-01-15T09:02:38.067Z,90.57
2018-01-15T09:03:38.035Z,89.91
2018-01-15T09:04:38.008Z,89.81
2018-01-15T09:05:37.992Z,89.53
2018-01-15T09:06:37.972Z,89.91
2018-01-15T09:07:37.946Z,89.81
2018-01-15T09:08:37.921Z,89.72
2018-01-15T09:09:37.901Z,89.81
2018-01-15T09:10:37.879Z,90.24
2018-01-15T09:11:37.861Z,90.05
2018-01-15T09:12:37.842Z,89.86
2018-01-15T09:13:37.820Z,89.95
2018-01-15T09:14:37.790Z,90.14
2018-01-15T09:15:37.771Z,89.95
2018-01-15T09:16:37.751Z,89.76
2018-01-15T09:17:37.729Z,90.05
2018-01-15T09:18:37.700Z,89.95
2018-01-15T09:19:37.680Z,90.05
2018-01-15T09:20:37.660Z,89.86
2018-01-15T09:21:37.640Z,89.95
2018-01-15T09:22:37.615Z,90.05
2018-01-15T09:23:37.593Z,90.24
2018-01-15T09:24:37.570Z,89.29
2018-01-15T09:25:37.550Z,89.58
2018-01-15T09:26:37.527Z,89.39
2018-01-15T09:27:37.507Z,89.48
2018-01-15T09:28:37.488Z,89.48
2018-01-15T09:29:37.471Z,90.05
2018-01-15T09:30:37.451Z,89.48
2018-01-15T09:31:37.417Z,89.48
2018-01-15T09:32:37.399Z,90.24
2018-01-15T09:33:37.376Z,89.10
2018-01-15T09:34:37.356Z,89.20
2018-01-15T09:35:37.330Z,89.29
2018-01-15T09:36:37.315Z,89.48
2018-01-15T09:37:37.291Z,89.58
2018-01-15T09:38:37.270Z,89.39
2018-01-15T09:39:37.299Z,89.39
2018-01-15T09:40:37.233Z,89.48
2018-01-15T09:41:37.316Z,89.39
2018-01-15T09:42:37.180Z,89.00
2018-01-15T09:43:37.296Z,89.48
2018-01-15T09:44:37.168Z,89.10
2018-01-15T09:45:37.176Z,89.33
2018-01-15T09:46:37.100Z,89.33
2018-01-15T09:47:37.336Z,89.10
2018-01-15T09:48:37.051Z,89.00
2018-01-15T09:49:37.041Z,89.33
2018-01-15T09:50:37.010Z,89.29
2018-01-15T09:51:36.993Z,89.24
2018-01-15T09:52:36.969Z,89.05
2018-01-15T09:53:36.946Z,89.43
2018-01-15T09:54:36.930Z,89.43
2018-01-15T09:55:36.900Z,89.43
2018-01-15T09:56:36.878Z,89.33
2018-01-15T09:57:36.856Z,89.33
2018-01-15T09:58:36.841Z,89.05
2018-01-15T09:59:36.818Z,88.57
2018-01-15T10:00:36.797Z,89.14
2018-01-15T10:01:36.770Z,88.95
2018-01-15T10:02:36.748Z,88.76
2018-01-15T10:03:36.731Z,88.95
2018-01-15T10:04:36.710Z,88.86
2018-01-15T10:05:36.691Z,88.76
2018-01-15T10:06:36.670Z,88.71
2018-01-15T10:07:36.644Z,88.90
2018-01-15T10:08:36.623Z,88.53
2018-01-15T10:09:36.603Z,88.53
2018-01-15T10:10:36.580Z,88.53
2018-01-15T10:11:36.563Z,88.90
2018-01-15T10:12:36.539Z,89.00
2018-01-15T10:13:36.521Z,88.62
2018-01-15T10:14:36.503Z,88.15
2018-01-15T10:15:36.477Z,88.81
2018-01-15T10:16:36.463Z,89.09
2018-01-15T10:17:36.435Z,89.00
2018-01-15T10:18:36.418Z,88.71
2018-01-15T10:19:36.394Z,88.71
2018-01-15T10:20:36.371Z,88.62
2018-01-15T10:21:36.350Z,88.43
2018-01-15T10:22:36.328Z,88.71
2018-01-15T10:23:36.310Z,88.53
2018-01-15T10:24:36.287Z,88.43
2018-01-15T10:25:36.271Z,88.71
2018-01-15T10:26:36.246Z,88.43
2018-01-15T10:27:36.226Z,88.05
2018-01-15T10:28:36.213Z,88.34
2018-01-15T10:29:36.188Z,88.71
2018-01-15T10:30:36.161Z,88.24
2018-01-15T10:31:36.142Z,88.15
2018-01-15T10:32:36.129Z,88.62
2018-01-15T10:33:36.105Z,88.81
2018-01-15T10:34:36.085Z,88.62
2018-01-15T10:35:36.061Z,88.34
2018-01-15T10:36:36.041Z,88.62
2018-01-15T10:37:36.020Z,88.62
2018-01-15T10:38:36.001Z,88.62
2018-01-15T10:39:35.979Z,88.81
2018-01-15T10:40:35.964Z,88.62
2018-01-15T10:41:35.940Z,88.43
2018-01-15T10:42:35.918Z,88.43
2018-01-15T10:43:35.898Z,88.62
2018-01-15T10:44:35.878Z,88.15
2018-01-15T10:45:35.854Z,88.53
2018-01-15T10:46:35.831Z,88.43
2018-01-15T10:47:35.816Z,88.53
2018-01-15T10:48:35.791Z,88.53
2018-01-15T10:49:35.770Z,88.53
2018-01-15T10:50:35.750Z,88.53
2018-01-15T10:51:35.729Z,88.43
2018-01-15T10:52:35.719Z,88.53
2018-01-15T10:53:35.697Z,88.43
2018-01-15T10:54:35.667Z,88.71
2018-01-15T10:55:35.645Z,88.71
2018-01-15T10:56:35.630Z,88.43
2018-01-15T10:57:35.602Z,88.53
2018-01-15T10:58:35.590Z,88.34
2018-01-15T10:59:35.568Z,88.62
2018-01-15T11:00:35.540Z,88.53
2018-01-15T11:01:35.520Z,88.43
2018-01-15T11:02:35.501Z,87.76
2018-01-15T11:03:35.482Z,88.43
2018-01-15T11:04:35.460Z,87.86
2018-01-15T11:05:35.439Z,87.90
2018-01-15T11:06:35.416Z,87.95
2018-01-15T11:07:35.402Z,88.15
2018-01-15T11:08:35.379Z,87.81
2018-01-15T11:09:35.358Z,87.81
2018-01-15T11:10:35.342Z,88.19
2018-01-15T11:11:35.331Z,87.62
2018-01-15T11:12:35.297Z,87.62
2018-01-15T11:13:35.280Z,87.81
2018-01-15T11:14:35.287Z,87.62
2018-01-15T11:15:35.236Z,87.62
2018-01-15T11:16:35.213Z,87.71
2018-01-15T11:17:35.189Z,87.24
2018-01-15T11:18:35.170Z,87.24
2018-01-15T11:20:35.128Z,87.24
2018-01-15T11:21:35.108Z,87.24
2018-01-15T11:22:35.087Z,87.34
2018-01-15T11:23:35.069Z,86.95
2018-01-15T11:24:35.049Z,86.86
2018-01-15T11:25:35.090Z,86.95
2018-01-15T11:26:35.014Z,86.95
2018-01-15T11:27:34.985Z,86.80
2018-01-15T11:28:34.979Z,87.19
2018-01-15T11:29:34.954Z,86.80
2018-01-15T11:30:34.931Z,87.09
2018-01-15T11:31:34.920Z,86.99
2018-01-15T11:32:34.892Z,86.99
2018-01-15T11:33:34.873Z,86.43
2018-01-15T11:34:34.846Z,86.33
2018-01-15T11:35:34.824Z,86.33
2018-01-15T11:36:34.810Z,86.80
2018-01-15T11:37:34.784Z,86.14
2018-01-15T11:38:34.762Z,86.43
2018-01-15T11:39:34.754Z,86.52
2018-01-15T11:40:34.732Z,87.09
2018-01-15T11:41:34.702Z,86.80
2018-01-15T11:42:34.685Z,86.52
2018-01-15T11:43:34.661Z,86.80
2018-01-15T11:44:34.640Z,86.99
2018-01-15T11:45:34.620Z,87.19
2018-01-15T11:46:34.601Z,87.19
2018-01-15T11:47:34.580Z,87.24
2018-01-15T11:48:34.558Z,86.90
2018-01-15T11:49:34.540Z,87.38
2018-01-15T11:50:34.519Z,86.90
2018-01-15T11:51:34.507Z,87.09
2018-01-15T11:52:34.480Z,87.28
2018-01-15T11:53:34.459Z,86.99
2018-01-15T11:54:34.442Z,86.71
2018-01-15T11:55:34.419Z,86.90
2018-01-15T11:56:34.398Z,86.71
2018-01-15T11:57:34.381Z,86.61
2018-01-15T11:58:34.360Z,86.90
2018-01-15T11:59:34.349Z,86.71
2018-01-15T12:00:34.318Z,86.99
2018-01-15T12:01:34.297Z,86.90
2018-01-15T12:02:34.282Z,86.99
2018-01-15T12:03:34.255Z,86.80
2018-01-15T12:04:34.239Z,87.19
2018-01-15T12:05:34.215Z,86.80
2018-01-15T12:06:34.194Z,86.80
2018-01-15T12:07:34.175Z,86.71
2018-01-15T12:08:34.156Z,86.99
2018-01-15T12:09:34.135Z,86.71
2018-01-15T12:10:34.123Z,87.09
2018-01-15T12:11:34.101Z,86.71
2018-01-15T12:12:34.078Z,86.80
2018-01-15T12:13:34.049Z,86.90
2018-01-15T12:14:34.038Z,86.99
2018-01-15T12:15:34.021Z,87.09
2018-01-15T12:16:33.990Z,87.47
2018-01-15T12:17:33.970Z,87.57
2018-01-15T12:18:33.951Z,87.09
2018-01-15T12:19:33.933Z,86.99
2018-01-15T12:20:33.909Z,86.90
2018-01-15T12:21:33.916Z,86.99
2018-01-15T12:22:33.872Z,87.19
2018-01-15T12:23:33.850Z,87.57
2018-01-15T12:24:33.829Z,87.28
2018-01-15T12:25:33.812Z,87.47
2018-01-15T12:26:33.792Z,87.47
2018-01-15T12:27:33.769Z,87.38
2018-01-15T12:28:33.751Z,87.38
2018-01-15T12:29:33.730Z,87.66
2018-01-15T12:30:33.711Z,87.47
2018-01-15T12:31:33.690Z,87.38
2018-01-15T12:32:33.676Z,87.38
2018-01-15T12:33:33.646Z,87.19
2018-01-15T12:34:33.631Z,87.57
2018-01-15T12:35:33.608Z,87.28
2018-01-15T12:36:33.594Z,87.47
2018-01-15T12:37:33.567Z,87.28
2018-01-15T12:38:33.557Z,87.57
2018-01-15T12:39:33.530Z,87.66
2018-01-15T12:40:33.515Z,87.38
2018-01-15T12:41:33.494Z,87.76
2018-01-15T12:42:33.472Z,87.85
2018-01-15T12:43:33.459Z,88.04
2018-01-15T12:44:33.428Z,87.38
2018-01-15T12:45:33.402Z,87.66
2018-01-15T12:46:33.441Z,87.95
2018-01-15T12:47:33.361Z,87.47
2018-01-15T12:48:33.356Z,87.38
2018-01-15T12:49:33.320Z,87.38
2018-01-15T12:50:33.299Z,87.47
2018-01-15T12:51:33.278Z,87.38
2018-01-15T12:52:33.264Z,87.85
2018-01-15T12:53:33.239Z,87.28